»·PEaware :: N621CP KSEZ-KPHX

N621CP :: KSEZ-KPHX

FLIGHT INFORMATION

Flight Status: Arrived
Operator: Privately registered:
United States
More flights under this callsign
Pilot: Reinaldo C. (26424)
Aircraft: Unknown
(GA)
More flights by this aircraft type
Origin: KSEZ Sedona
United States
Destination: KPHX Phoenix Sky Harbor Intl
United States
More flights between these airports :: More routes between these airports
Route: ZABUS DSERT DSERT2
File this flight plan on PilotEdge
Remarks:
Altitude:
(Current/Filed)
11,000ft
Speed:
(Current/Filed)
180kts
Departed: 27-Oct-19 02:56 PM
Arrived: 27-Oct-19 03:33 PM
Distance/Time
Traveled:
86nm/0:36
Distance/Time
To Go:
Arrived

Flight Plot

Page will automatically refresh every two minutes.


Map Options




Map Legend


Flown Route
Filed Route
Departure Airport
Arrival Airport
Navaid (VOR, NDB)
Fix

Horizontal Profiles

Position Reports

Time Latitude Longitude Heading Altitude Ground
Speed
27-Oct-19 14:38 34.848808 -111.792185 135 4779ft 0kts
27-Oct-19 14:39 34.848808 -111.792185 135 4779ft 0kts
27-Oct-19 14:40 34.848808 -111.792185 135 4779ft 0kts
27-Oct-19 14:41 34.848808 -111.792185 135 4779ft 0kts
27-Oct-19 14:42 34.848808 -111.792185 135 4779ft 0kts
27-Oct-19 14:43 34.848808 -111.792185 135 4779ft 0kts
27-Oct-19 14:44 34.848808 -111.792185 135 4779ft 0kts
27-Oct-19 14:45 34.848808 -111.792185 135 4779ft 0kts
27-Oct-19 14:46 34.848808 -111.792185 135 4779ft 0kts
27-Oct-19 14:47 34.848808 -111.792185 135 4779ft 0kts
27-Oct-19 14:48 34.848808 -111.792185 135 4779ft 0kts
27-Oct-19 14:49 34.848667 -111.792004 34 4779ft 2kts
27-Oct-19 14:50 34.849193 -111.791407 51 4779ft 3kts
27-Oct-19 14:51 34.848506 -111.789772 46 4779ft 8kts
27-Oct-19 14:52 34.850330 -111.787487 46 4779ft 7kts
27-Oct-19 14:53 34.852398 -111.784909 44 4779ft 12kts
27-Oct-19 14:54 34.852221 -111.783927 227 4779ft 5kts
27-Oct-19 14:55 34.835018 -111.805488 213 5657ft 112kts
27-Oct-19 14:56 34.810644 -111.835574 223 7185ft 129kts
27-Oct-19 14:57 34.787029 -111.864957 222 8529ft 116kts
27-Oct-19 14:58 34.763692 -111.893908 224 9768ft 124kts
27-Oct-19 14:59 34.738351 -111.925446 226 10686ft 131kts
27-Oct-19 15:00 34.704666 -111.938401 145 11001ft 192kts
27-Oct-19 15:01 34.676782 -111.876623 128 10998ft 215kts
27-Oct-19 15:02 34.647380 -111.812437 129 10999ft 221kts
27-Oct-19 15:03 34.616485 -111.748650 141 10998ft 210kts
27-Oct-19 15:04 34.568040 -111.721350 169 11006ft 191kts
27-Oct-19 15:05 34.517595 -111.698840 169 11013ft 196kts
27-Oct-19 15:06 34.466810 -111.676325 169 11017ft 192kts
27-Oct-19 15:07 34.417440 -111.674311 200 11025ft 177kts
27-Oct-19 15:08 34.369296 -111.688654 199 11027ft 180kts
27-Oct-19 15:09 34.320658 -111.703406 199 11025ft 181kts
27-Oct-19 15:10 34.272181 -111.718113 200 11021ft 177kts
27-Oct-19 15:11 34.224473 -111.732592 200 11005ft 178kts
27-Oct-19 15:12 34.176248 -111.747210 199 10998ft 181kts
27-Oct-19 15:13 34.127505 -111.761958 199 10986ft 180kts
27-Oct-19 15:14 34.078994 -111.776611 199 10928ft 180kts
27-Oct-19 15:16 34.028896 -111.791728 198 10586ft 189kts
27-Oct-19 15:17 33.975915 -111.807706 196 9694ft 201kts
27-Oct-19 15:18 33.921385 -111.823845 190 8809ft 202kts
27-Oct-19 15:19 33.864830 -111.825485 181 7851ft 202kts
27-Oct-19 15:20 33.808695 -111.825657 181 7005ft 199kts
27-Oct-19 15:21 33.756550 -111.826083 181 6996ft 182kts
27-Oct-19 15:22 33.706454 -111.823931 172 6892ft 185kts
27-Oct-19 15:23 33.653120 -111.812541 171 6051ft 194kts
27-Oct-19 15:24 33.603902 -111.802047 171 5980ft 165kts
27-Oct-19 15:25 33.559706 -111.793200 181 5896ft 165kts
27-Oct-19 15:26 33.512108 -111.802639 190 5256ft 179kts
27-Oct-19 15:27 33.463240 -111.813670 190 4415ft 170kts
27-Oct-19 15:28 33.419705 -111.826974 223 3426ft 163kts
27-Oct-19 15:29 33.429136 -111.876310 277 2958ft 139kts
27-Oct-19 15:30 33.428957 -111.917124 256 2566ft 119kts
27-Oct-19 15:31 33.428585 -111.957754 267 1892ft 121kts
27-Oct-19 15:32 33.428811 -111.995293 270 1280ft 105kts
27-Oct-19 15:33 33.428820 -112.019719 266 1139ft 21kts
27-Oct-19 15:33 33.428246 -112.021719 206 1139ft 0kts
27-Oct-19 15:35 33.427501 -112.024302 203 1139ft 8kts
27-Oct-19 15:36 33.426681 -112.023794 88 1139ft 0kts
27-Oct-19 15:36 33.426681 -112.023794 88 1139ft 0kts
27-Oct-19 15:37 33.426681 -112.023794 88 1139ft 0kts
27-Oct-19 15:38 33.426681 -112.023794 88 1139ft 0kts
27-Oct-19 15:40 33.426681 -112.023794 88 1139ft 0kts
27-Oct-19 15:40 33.426681 -112.023794 88 1139ft 0kts
27-Oct-19 15:41 33.426681 -112.023794 88 1138ft 0kts
27-Oct-19 15:42 33.426681 -112.023794 88 1138ft 0kts
27-Oct-19 15:43 33.426681 -112.023794 88 1138ft 0kts
27-Oct-19 15:44 33.426681 -112.023794 88 1138ft 0kts
27-Oct-19 15:45 33.426681 -112.023794 88 1138ft 0kts
27-Oct-19 15:46 33.426681 -112.023794 88 1138ft 0kts

Navigation Log

Ident Type
Flight plan parsing failed, navigation log unavailable